createdAt,value
2018-12-13T00:00:54.869Z,3.73
2018-12-13T00:01:54.865Z,3.69
2018-12-13T00:02:54.809Z,3.66
2018-12-13T00:03:54.804Z,3.59
2018-12-13T00:04:54.830Z,3.63
2018-12-13T00:05:54.773Z,3.52
2018-12-13T00:06:54.765Z,3.55
2018-12-13T00:07:54.759Z,3.56
2018-12-13T00:08:54.740Z,3.60
2018-12-13T00:09:54.732Z,3.59
2018-12-13T00:10:54.779Z,3.49
2018-12-13T00:11:54.729Z,3.55
2018-12-13T00:12:54.698Z,3.56
2018-12-13T00:13:54.689Z,3.55
2018-12-13T00:14:54.678Z,3.46
2018-12-13T00:15:54.670Z,3.42
2018-12-13T00:16:54.697Z,3.41
2018-12-13T00:17:54.644Z,3.41
2018-12-13T00:18:54.637Z,3.49
2018-12-13T00:19:54.625Z,3.42
2018-12-13T00:20:54.616Z,3.59
2018-12-13T00:21:54.603Z,3.49
2018-12-13T00:22:54.878Z,3.59
2018-12-13T00:23:54.583Z,3.59
2018-12-13T00:24:54.571Z,3.55
2018-12-13T00:25:54.596Z,3.60
2018-12-13T00:26:54.546Z,3.59
2018-12-13T00:27:54.536Z,3.46
2018-12-13T00:28:54.576Z,3.55
2018-12-13T00:29:54.519Z,3.48
2018-12-13T00:30:54.509Z,3.55
2018-12-13T00:31:54.496Z,3.49
2018-12-13T00:32:54.485Z,3.49
2018-12-13T00:33:54.516Z,3.35
2018-12-13T00:34:54.462Z,3.36
2018-12-13T00:35:54.456Z,3.41
2018-12-13T00:36:54.451Z,3.54
2018-12-13T00:37:54.434Z,3.59
2018-12-13T00:38:54.425Z,3.45
2018-12-13T00:39:54.469Z,3.42
2018-12-13T00:40:54.400Z,3.33
2018-12-13T00:41:54.431Z,3.32
2018-12-13T00:42:54.375Z,3.30
2018-12-13T00:43:54.367Z,3.37
2018-12-13T00:44:54.356Z,3.33
2018-12-13T00:45:54.450Z,3.25
2018-12-13T00:46:54.334Z,3.26
2018-12-13T00:47:54.392Z,3.41
2018-12-13T00:48:54.313Z,3.42
2018-12-13T00:49:54.301Z,3.45
2018-12-13T00:50:54.290Z,3.37
2018-12-13T00:51:54.280Z,3.48
2018-12-13T00:52:54.276Z,3.44
2018-12-13T00:53:54.304Z,3.45
2018-12-13T00:54:54.247Z,3.46
2018-12-13T00:55:54.237Z,3.45
2018-12-13T00:56:54.230Z,3.44
2018-12-13T00:57:54.220Z,3.32
2018-12-13T00:58:54.202Z,3.41
2018-12-13T00:59:54.239Z,3.41
2018-12-13T01:00:54.184Z,3.45
2018-12-13T01:01:54.211Z,3.45
2018-12-13T01:02:54.165Z,3.54
2018-12-13T01:03:54.153Z,3.42
2018-12-13T01:04:54.144Z,3.51
2018-12-13T01:05:54.129Z,3.52
2018-12-13T01:06:54.120Z,3.60
2018-12-13T01:07:54.155Z,3.52
2018-12-13T01:08:54.099Z,3.62
2018-12-13T01:09:54.088Z,3.51
2018-12-13T01:10:54.074Z,3.67
2018-12-13T01:11:54.085Z,3.67
2018-12-13T01:12:54.056Z,3.69
2018-12-13T01:13:54.085Z,3.56
2018-12-13T01:14:54.034Z,3.60
2018-12-13T01:15:54.022Z,3.54
2018-12-13T01:16:54.019Z,3.49
2018-12-13T01:17:54.000Z,3.45
2018-12-13T01:18:53.991Z,3.33
2018-12-13T01:19:54.020Z,3.36
2018-12-13T01:20:53.971Z,3.37
2018-12-13T01:21:53.964Z,3.22
2018-12-13T01:22:53.951Z,3.33
2018-12-13T01:23:53.936Z,3.32
2018-12-13T01:24:53.924Z,3.23
2018-12-13T01:25:53.954Z,3.23
2018-12-13T01:26:53.905Z,3.32
2018-12-13T01:27:53.893Z,3.25
2018-12-13T01:28:53.883Z,3.32
2018-12-13T01:29:53.871Z,3.25
2018-12-13T01:30:53.859Z,3.23
2018-12-13T01:31:53.902Z,3.12
2018-12-13T01:32:53.843Z,3.25
2018-12-13T01:33:53.829Z,3.11
2018-12-13T01:34:53.818Z,3.12
2018-12-13T01:35:53.810Z,3.11
2018-12-13T01:36:53.803Z,3.00
2018-12-13T01:37:53.827Z,2.94
2018-12-13T01:38:53.784Z,2.94
2018-12-13T01:39:53.765Z,2.87
2018-12-13T01:40:53.755Z,2.87
2018-12-13T01:41:53.791Z,2.82
2018-12-13T01:42:53.734Z,2.72
2018-12-13T01:43:53.721Z,2.72
2018-12-13T01:44:53.713Z,2.68
2018-12-13T01:45:53.707Z,2.63
2018-12-13T01:46:53.700Z,2.61
2018-12-13T01:47:53.720Z,2.53
2018-12-13T01:48:53.671Z,2.55
2018-12-13T01:49:53.676Z,2.43
2018-12-13T01:50:53.687Z,2.45
2018-12-13T01:51:53.640Z,2.37
2018-12-13T01:52:53.663Z,2.30
2018-12-13T01:53:53.614Z,2.25
2018-12-13T01:54:53.880Z,2.17
2018-12-13T01:55:53.593Z,2.24
2018-12-13T01:56:53.583Z,2.30
2018-12-13T01:57:53.571Z,2.35
2018-12-13T01:58:53.561Z,2.19
2018-12-13T01:59:53.548Z,2.24
2018-12-13T02:00:53.606Z,2.19
2018-12-13T02:01:53.529Z,2.24
2018-12-13T02:02:53.519Z,2.29
2018-12-13T02:03:53.511Z,2.29
2018-12-13T02:04:53.507Z,2.25
2018-12-13T02:05:53.486Z,2.15
2018-12-13T02:06:58.672Z,2.10
2018-12-13T02:07:54.464Z,2.17
2018-12-13T02:08:53.454Z,2.17
2018-12-13T02:09:53.465Z,2.15
2018-12-13T02:10:53.429Z,2.14
2018-12-13T02:11:53.418Z,2.14
2018-12-13T02:12:53.457Z,2.01
2018-12-13T02:13:53.410Z,1.95
2018-12-13T02:14:53.386Z,1.91
2018-12-13T02:15:53.374Z,1.99
2018-12-13T02:16:53.364Z,2.07
2018-12-13T02:17:53.396Z,1.99
2018-12-13T02:18:53.345Z,2.10
2018-12-13T02:19:53.331Z,2.06
2018-12-13T02:20:53.321Z,2.00
2018-12-13T02:21:53.312Z,2.00
2018-12-13T02:22:53.303Z,2.00
2018-12-13T02:23:53.324Z,2.07
2018-12-13T02:24:53.282Z,2.17
2018-12-13T02:25:53.267Z,2.14
2018-12-13T02:26:53.257Z,2.14
2018-12-13T02:27:53.245Z,2.07
2018-12-13T02:28:53.286Z,1.95
2018-12-13T02:29:53.263Z,2.01
2018-12-13T02:30:53.214Z,1.91
2018-12-13T02:31:53.204Z,1.95
2018-12-13T02:32:53.193Z,1.82
2018-12-13T02:33:53.182Z,1.78
2018-12-13T02:34:53.209Z,1.75
2018-12-13T02:35:53.159Z,1.71
2018-12-13T02:36:53.149Z,1.75
2018-12-13T02:37:53.183Z,1.74
2018-12-13T02:38:53.143Z,1.69
2018-12-13T02:39:53.397Z,1.60
2018-12-13T02:40:53.103Z,1.67
2018-12-13T02:41:53.098Z,1.66
2018-12-13T02:42:53.080Z,1.59
2018-12-13T02:43:53.071Z,1.49
2018-12-13T02:44:53.060Z,1.53
2018-12-13T02:45:53.093Z,1.52
2018-12-13T02:46:53.038Z,1.45
2018-12-13T02:47:53.028Z,1.39
2018-12-13T02:48:53.016Z,1.41
2018-12-13T02:49:53.043Z,1.31
2018-12-13T02:50:52.995Z,1.26
2018-12-13T02:51:52.983Z,1.16
2018-12-13T02:52:52.974Z,1.13
2018-12-13T02:53:52.960Z,1.13
2018-12-13T02:54:52.990Z,1.24
2018-12-13T02:55:52.940Z,1.20
2018-12-13T02:56:52.927Z,1.20
2018-12-13T02:57:52.966Z,1.13
2018-12-13T02:58:52.906Z,1.12
2018-12-13T02:59:52.931Z,1.18
2018-12-13T03:00:52.886Z,1.16
2018-12-13T03:01:52.893Z,1.28
2018-12-13T03:02:52.865Z,1.30
2018-12-13T03:03:52.894Z,1.21
2018-12-13T03:04:52.842Z,1.24
2018-12-13T03:05:52.833Z,1.26
2018-12-13T03:06:52.825Z,1.17
2018-12-13T03:07:52.809Z,1.17
2018-12-13T03:08:52.797Z,1.05
2018-12-13T03:09:52.854Z,1.08
2018-12-13T03:10:52.776Z,0.99
2018-12-13T03:11:52.768Z,0.96
2018-12-13T03:12:52.759Z,1.02
2018-12-13T03:13:52.749Z,0.99
2018-12-13T03:14:52.744Z,0.94
2018-12-13T03:15:52.792Z,0.99
2018-12-13T03:16:52.711Z,1.00
2018-12-13T03:17:52.700Z,0.99
2018-12-13T03:18:52.693Z,1.18
2018-12-13T03:19:52.684Z,1.16
2018-12-13T03:20:52.670Z,1.10
2018-12-13T03:21:52.698Z,1.16
2018-12-13T03:22:52.694Z,1.13
2018-12-13T03:23:52.637Z,1.10
2018-12-13T03:24:52.631Z,1.10
2018-12-13T03:25:52.618Z,1.08
2018-12-13T03:26:52.603Z,1.12
2018-12-13T03:27:52.596Z,1.17
2018-12-13T03:28:52.627Z,1.16
2018-12-13T03:29:52.620Z,1.10
2018-12-13T03:30:52.561Z,1.12
2018-12-13T03:31:52.549Z,1.13
2018-12-13T03:32:52.563Z,1.09
2018-12-13T03:33:52.525Z,1.06
2018-12-13T03:34:52.515Z,1.02
2018-12-13T03:35:52.636Z,0.90
2018-12-13T03:36:52.535Z,0.82
2018-12-13T03:37:52.484Z,0.62
2018-12-13T03:38:52.473Z,0.47
2018-12-13T03:39:52.506Z,0.50
2018-12-13T03:40:52.451Z,0.47
2018-12-13T03:41:52.442Z,0.55
2018-12-13T03:42:52.443Z,0.62
2018-12-13T03:43:52.425Z,0.56
2018-12-13T03:44:52.410Z,0.67
2018-12-13T03:45:52.446Z,0.59
2018-12-13T03:46:52.396Z,0.51
2018-12-13T03:47:52.375Z,0.56
2018-12-13T03:48:52.368Z,0.56
2018-12-13T03:49:52.357Z,0.47
2018-12-13T03:50:52.342Z,0.48
2018-12-13T03:51:52.375Z,0.53
2018-12-13T03:52:52.323Z,0.63
2018-12-13T03:53:52.310Z,0.55
2018-12-13T03:54:52.299Z,0.60
2018-12-13T03:55:52.344Z,0.56
2018-12-13T03:56:52.277Z,0.56
2018-12-13T03:57:52.268Z,0.64
2018-12-13T03:58:52.256Z,0.55
2018-12-13T03:59:52.244Z,0.59
2018-12-13T04:00:52.237Z,0.55
2018-12-13T04:01:52.270Z,0.55
2018-12-13T04:02:52.233Z,0.55
2018-12-13T04:03:52.202Z,0.55
2018-12-13T04:04:52.205Z,0.60
2018-12-13T04:05:52.453Z,0.56
2018-12-13T04:06:52.168Z,0.62
2018-12-13T04:07:52.203Z,0.59
2018-12-13T04:08:52.150Z,0.56
2018-12-13T04:09:52.145Z,0.64
2018-12-13T04:10:52.125Z,0.48
2018-12-13T04:11:52.117Z,0.33
2018-12-13T04:12:52.107Z,0.35
2018-12-13T04:13:52.132Z,0.35
2018-12-13T04:14:52.089Z,0.41
2018-12-13T04:15:52.071Z,0.27
2018-12-13T04:16:52.059Z,0.26
2018-12-13T04:17:52.099Z,0.30
2018-12-13T04:18:52.040Z,0.32
2018-12-13T04:19:52.030Z,0.23
2018-12-13T04:20:52.017Z,0.26
2018-12-13T04:21:52.012Z,0.25
2018-12-13T04:22:51.997Z,0.23
2018-12-13T04:23:52.039Z,0.25
2018-12-13T04:24:51.992Z,0.17
2018-12-13T04:25:51.967Z,0.23
2018-12-13T04:26:51.950Z,0.11
2018-12-13T04:27:51.995Z,0.07
2018-12-13T04:28:51.930Z,0.11
2018-12-13T04:29:51.965Z,0.00
2018-12-13T04:30:51.913Z,0.05
2018-12-13T04:31:51.905Z,0.08
2018-12-13T04:32:51.890Z,0.08
2018-12-13T04:33:51.925Z,0.15
2018-12-13T04:34:51.871Z,0.22
2018-12-13T04:35:51.856Z,0.20
2018-12-13T04:36:51.845Z,0.26
2018-12-13T04:37:51.832Z,0.25
2018-12-13T04:38:51.822Z,0.23
2018-12-13T04:39:51.864Z,0.22
2018-12-13T04:40:51.803Z,0.25
2018-12-13T04:41:51.803Z,0.30
2018-12-13T04:42:51.779Z,0.20
2018-12-13T04:43:51.777Z,0.15
2018-12-13T04:44:51.759Z,0.20
2018-12-13T04:45:51.792Z,0.27
2018-12-13T04:46:51.743Z,0.23
2018-12-13T04:47:51.724Z,0.18
2018-12-13T04:48:51.721Z,0.09
2018-12-13T04:49:51.705Z,0.11
2018-12-13T04:50:51.693Z,0.18
2018-12-13T04:51:51.733Z,0.22
2018-12-13T04:52:51.670Z,0.09
2018-12-13T04:53:51.670Z,0.12
2018-12-13T04:54:51.647Z,0.20
2018-12-13T04:55:51.635Z,0.23
2018-12-13T04:56:51.625Z,0.32
2018-12-13T04:57:51.664Z,0.25
2018-12-13T04:58:51.613Z,0.17
2018-12-13T04:59:51.596Z,0.04
2018-12-13T05:00:51.584Z,0.12
2018-12-13T05:01:51.581Z,0.11
2018-12-13T05:02:51.566Z,0.14
2018-12-13T05:03:51.592Z,0.20
2018-12-13T05:04:51.539Z,0.14
2018-12-13T05:05:51.529Z,0.14
2018-12-13T05:06:51.527Z,0.08
2018-12-13T05:07:51.547Z,0.20
2018-12-13T05:08:51.496Z,0.20
2018-12-13T05:09:51.490Z,0.25
2018-12-13T05:10:51.519Z,0.22
2018-12-13T05:11:51.471Z,0.27
2018-12-13T05:12:51.457Z,0.22
2018-12-13T05:13:51.440Z,0.22
2018-12-13T05:14:51.713Z,0.27
2018-12-13T05:15:51.430Z,0.35
2018-12-13T05:16:51.418Z,0.25
2018-12-13T05:17:51.401Z,0.45
2018-12-13T05:18:51.392Z,0.44
2018-12-13T05:19:51.386Z,0.40
2018-12-13T05:20:51.404Z,0.33
2018-12-13T05:21:51.360Z,0.26
2018-12-13T05:22:51.390Z,0.30
2018-12-13T05:23:51.333Z,0.48
2018-12-13T05:24:51.330Z,0.26
2018-12-13T05:25:51.312Z,0.44
2018-12-13T05:26:51.309Z,0.36
2018-12-13T05:27:51.336Z,0.30
2018-12-13T05:28:51.294Z,0.30
2018-12-13T05:29:51.268Z,0.27
2018-12-13T05:30:51.267Z,0.18
2018-12-13T05:31:51.248Z,0.30
2018-12-13T05:32:51.235Z,0.27
2018-12-13T05:33:51.278Z,0.29
2018-12-13T05:34:51.213Z,0.36
2018-12-13T05:35:51.208Z,0.32
2018-12-13T05:36:51.208Z,0.27
2018-12-13T05:37:51.203Z,0.26
2018-12-13T05:38:51.175Z,0.29
2018-12-13T05:39:51.210Z,0.30
2018-12-13T05:40:51.148Z,0.22
2018-12-13T05:41:51.138Z,0.20
2018-12-13T05:42:51.131Z,0.20
2018-12-13T05:43:51.172Z,0.23
2018-12-13T05:44:51.110Z,0.30
2018-12-13T05:45:51.094Z,0.15
2018-12-13T05:46:51.086Z,0.17
2018-12-13T05:47:51.076Z,0.17
2018-12-13T05:48:51.110Z,0.14
2018-12-13T05:49:51.054Z,0.11
2018-12-13T05:50:51.045Z,0.08
2018-12-13T05:51:51.030Z,0.05
2018-12-13T05:52:51.020Z,0.07
2018-12-13T05:53:51.009Z,0.08
2018-12-13T05:54:51.043Z,0.14
2018-12-13T05:55:50.986Z,0.12
2018-12-13T05:56:51.249Z,0.07
2018-12-13T05:57:50.970Z,0.11
2018-12-13T05:58:50.955Z,0.11
2018-12-13T05:59:50.945Z,0.05
2018-12-13T06:00:50.933Z,0.07
2018-12-13T06:01:50.924Z,0.08
2018-12-13T06:02:50.963Z,0.12
2018-12-13T06:03:50.903Z,0.15
2018-12-13T06:04:50.903Z,0.17
2018-12-13T06:05:50.887Z,0.11
2018-12-13T06:06:50.913Z,0.09
2018-12-13T06:07:54.871Z,0.14
2018-12-13T06:08:50.862Z,0.25
2018-12-13T06:09:50.840Z,0.30
2018-12-13T06:10:50.835Z,0.22
2018-12-13T06:11:50.861Z,0.26
2018-12-13T06:12:50.813Z,0.25
2018-12-13T06:13:50.812Z,0.26
2018-12-13T06:14:50.781Z,0.20
2018-12-13T06:15:50.771Z,0.11
2018-12-13T06:16:50.809Z,0.11
2018-12-13T06:17:50.757Z,0.02
2018-12-13T06:18:50.744Z,0.00
2018-12-13T06:19:50.736Z,-0.04
2018-12-13T06:20:50.765Z,-0.11
2018-12-13T06:21:50.705Z,-0.10
2018-12-13T06:22:50.762Z,-0.06
2018-12-13T06:23:50.686Z,-0.11
2018-12-13T06:24:51.032Z,-0.07
2018-12-13T06:25:50.669Z,-0.07
2018-12-13T06:26:50.681Z,0.00
2018-12-13T06:27:50.649Z,-0.01
2018-12-13T06:28:50.656Z,-0.10
2018-12-13T06:29:50.660Z,-0.06
2018-12-13T06:30:50.665Z,-0.03
2018-12-13T06:31:50.606Z,0.00
2018-12-13T06:32:50.589Z,0.08
2018-12-13T06:33:50.584Z,0.12
2018-12-13T06:34:50.569Z,0.11
2018-12-13T06:35:50.581Z,0.17
2018-12-13T06:36:50.592Z,0.09
2018-12-13T06:37:50.537Z,0.09
2018-12-13T06:38:50.542Z,0.17
2018-12-13T06:39:50.541Z,0.18
2018-12-13T06:40:50.600Z,0.33
2018-12-13T06:41:50.493Z,0.48
2018-12-13T06:42:50.528Z,0.40
2018-12-13T06:43:50.506Z,0.40
2018-12-13T06:44:50.506Z,0.43
2018-12-13T06:45:50.543Z,0.43
2018-12-13T06:46:50.460Z,0.47
2018-12-13T06:47:50.431Z,0.48
2018-12-13T06:48:50.417Z,0.47
2018-12-13T06:49:50.402Z,0.44
2018-12-13T06:50:50.394Z,0.47
2018-12-13T06:51:50.425Z,0.51
2018-12-13T06:52:50.369Z,0.45
2018-12-13T06:53:50.371Z,0.53
2018-12-13T06:54:50.371Z,0.72
2018-12-13T06:55:50.369Z,0.85
2018-12-13T06:56:50.325Z,0.88
2018-12-13T06:57:50.373Z,0.90
2018-12-13T06:58:50.338Z,0.96
2018-12-13T06:59:50.315Z,1.08
2018-12-13T07:00:50.308Z,1.09
2018-12-13T07:01:50.275Z,1.10
2018-12-13T07:02:50.339Z,1.21
2018-12-13T07:03:50.352Z,1.16
2018-12-13T07:04:50.251Z,1.18
2018-12-13T07:05:50.242Z,1.21
2018-12-13T07:06:50.221Z,1.28
2018-12-13T07:07:50.266Z,1.28
2018-12-13T07:08:50.238Z,1.26
2018-12-13T07:09:50.194Z,1.28
2018-12-13T07:10:50.177Z,1.23
2018-12-13T07:11:50.169Z,1.13
2018-12-13T07:12:50.197Z,1.13
2018-12-13T07:13:50.284Z,1.09
2018-12-13T07:14:50.157Z,1.03
2018-12-13T07:15:50.181Z,0.91
2018-12-13T07:16:50.119Z,0.90
2018-12-13T07:17:50.106Z,0.96
2018-12-13T07:18:50.093Z,0.91
2018-12-13T07:19:50.129Z,0.90
2018-12-13T07:20:50.079Z,0.94
2018-12-13T07:21:50.088Z,0.98
2018-12-13T07:22:50.053Z,0.91
2018-12-13T07:23:50.093Z,0.98
2018-12-13T07:24:50.025Z,0.88
2018-12-13T07:25:50.077Z,0.69
2018-12-13T07:26:50.076Z,0.70
2018-12-13T07:27:50.020Z,0.72
2018-12-13T07:28:49.983Z,0.59
2018-12-13T07:29:49.978Z,0.62
2018-12-13T07:30:49.965Z,0.69
2018-12-13T07:31:50.044Z,0.72
2018-12-13T07:32:49.950Z,0.69
2018-12-13T07:33:49.930Z,0.90
2018-12-13T07:34:49.985Z,0.94
2018-12-13T07:35:50.060Z,0.92
2018-12-13T07:36:49.895Z,1.08
2018-12-13T07:37:49.953Z,1.08
2018-12-13T07:38:49.871Z,1.09
2018-12-13T07:39:49.986Z,1.20
2018-12-13T07:40:49.855Z,1.26
2018-12-13T07:41:49.910Z,1.23
2018-12-13T07:42:49.864Z,1.18
2018-12-13T07:43:49.979Z,1.17
2018-12-13T07:44:49.810Z,1.18
2018-12-13T07:45:49.863Z,1.21
2018-12-13T07:46:49.850Z,1.18
2018-12-13T07:47:49.824Z,1.17
2018-12-13T07:48:56.244Z,1.17
2018-12-13T07:49:50.768Z,1.16
2018-12-13T07:50:49.758Z,1.12
2018-12-13T07:51:49.736Z,1.12
2018-12-13T07:52:49.796Z,1.09
2018-12-13T07:53:49.760Z,1.17
2018-12-13T07:54:49.937Z,1.21
2018-12-13T07:55:49.736Z,1.18
2018-12-13T07:56:49.721Z,1.17
2018-12-13T07:57:49.668Z,1.27
2018-12-13T07:58:49.702Z,1.28
2018-12-13T07:59:49.748Z,1.24
2018-12-13T08:00:49.632Z,1.31
2018-12-13T08:01:49.773Z,1.41
2018-12-13T08:02:49.642Z,1.53
2018-12-13T08:03:49.615Z,1.52
2018-12-13T08:04:49.679Z,1.48
2018-12-13T08:05:49.879Z,1.62
2018-12-13T08:06:49.569Z,1.60
2018-12-13T08:07:49.665Z,1.55
2018-12-13T08:08:49.632Z,1.59
2018-12-13T08:09:49.550Z,1.62
2018-12-13T08:10:49.874Z,1.64
2018-12-13T08:11:49.554Z,1.62
2018-12-13T08:12:49.506Z,1.62
2018-12-13T08:13:49.550Z,1.59
2018-12-13T08:14:49.529Z,1.64
2018-12-13T08:15:49.488Z,1.67
2018-12-13T08:16:49.539Z,1.57
2018-12-13T08:17:49.479Z,1.80
2018-12-13T08:18:49.441Z,1.74
2018-12-13T08:19:49.430Z,1.82
2018-12-13T08:20:49.432Z,1.80
2018-12-13T08:21:49.461Z,1.80
2018-12-13T08:22:49.940Z,1.84
2018-12-13T08:23:49.447Z,1.92
2018-12-13T08:24:49.425Z,1.80
2018-12-13T08:25:49.508Z,1.82
2018-12-13T08:26:49.407Z,1.91
2018-12-13T08:27:49.389Z,1.80
2018-12-13T08:28:49.408Z,1.85
2018-12-13T08:29:49.561Z,1.87
2018-12-13T08:30:49.306Z,1.81
2018-12-13T08:31:49.334Z,1.82
2018-12-13T08:32:49.353Z,1.85
2018-12-13T08:33:49.310Z,1.93
2018-12-13T08:34:49.365Z,1.87
2018-12-13T08:35:49.273Z,1.84
2018-12-13T08:36:49.276Z,1.89
2018-12-13T08:37:49.405Z,1.99
2018-12-13T08:38:49.236Z,2.00
2018-12-13T08:39:49.310Z,1.97
2018-12-13T08:40:49.202Z,1.95
2018-12-13T08:41:49.292Z,2.00
2018-12-13T08:42:49.887Z,2.01
2018-12-13T08:43:49.262Z,2.03
2018-12-13T08:44:49.316Z,2.00
2018-12-13T08:45:49.179Z,2.01
2018-12-13T08:46:49.145Z,2.06
2018-12-13T08:47:49.143Z,2.12
2018-12-13T08:48:49.227Z,2.17
2018-12-13T08:49:49.130Z,2.12
2018-12-13T08:50:49.357Z,2.11
2018-12-13T08:51:49.213Z,2.03
2018-12-13T08:52:49.398Z,2.10
2018-12-13T08:53:49.936Z,1.95
2018-12-13T08:54:49.055Z,2.00
2018-12-13T08:55:49.101Z,2.00
2018-12-13T08:56:49.164Z,2.03
2018-12-13T08:57:49.591Z,1.95
2018-12-13T08:58:49.231Z,2.06
2018-12-13T08:59:49.099Z,2.06
2018-12-13T09:00:49.168Z,2.06
2018-12-13T09:01:49.124Z,2.07
2018-12-13T09:02:49.000Z,2.15
2018-12-13T09:03:49.153Z,2.15
2018-12-13T09:04:48.985Z,1.97
2018-12-13T09:05:48.938Z,2.06
2018-12-13T09:06:49.000Z,2.17
2018-12-13T09:07:48.922Z,2.14
2018-12-13T09:08:48.978Z,2.11
2018-12-13T09:09:49.031Z,2.21
2018-12-13T09:10:48.902Z,2.25
2018-12-13T09:11:49.012Z,2.25
2018-12-13T09:12:48.878Z,2.35
2018-12-13T09:13:48.884Z,2.35
2018-12-13T09:14:48.912Z,2.29
2018-12-13T09:15:48.939Z,2.18
2018-12-13T09:16:48.837Z,2.24
2018-12-13T09:17:48.914Z,2.17
2018-12-13T09:18:48.868Z,2.24
2018-12-13T09:19:48.806Z,2.22
2018-12-13T09:20:48.836Z,2.33
2018-12-13T09:21:48.895Z,2.39
2018-12-13T09:22:49.087Z,2.37
2018-12-13T09:23:48.776Z,2.45
2018-12-13T09:24:48.741Z,2.39
2018-12-13T09:25:48.708Z,2.43
2018-12-13T09:26:48.701Z,2.42
2018-12-13T09:27:48.754Z,2.40
2018-12-13T09:28:48.782Z,2.45
2018-12-13T09:29:48.665Z,2.47
2018-12-13T09:30:48.658Z,2.53
2018-12-13T09:31:48.661Z,2.40
2018-12-13T09:32:48.692Z,2.47
2018-12-13T09:33:48.663Z,2.45
2018-12-13T09:34:48.616Z,2.43
2018-12-13T09:35:48.718Z,2.53
2018-12-13T09:36:48.612Z,2.57
2018-12-13T09:37:48.641Z,2.61
2018-12-13T09:38:48.767Z,2.60
2018-12-13T09:39:48.672Z,2.63
2018-12-13T09:40:48.551Z,2.57
2018-12-13T09:41:48.549Z,2.53
2018-12-13T09:42:48.543Z,2.61
2018-12-13T09:43:48.578Z,2.60
2018-12-13T09:44:48.511Z,2.65
2018-12-13T09:45:48.537Z,2.71
2018-12-13T09:46:48.561Z,2.73
2018-12-13T09:47:48.490Z,2.75
2018-12-13T09:48:49.433Z,2.71
2018-12-13T09:49:48.979Z,2.66
2018-12-13T09:50:49.048Z,2.53
2018-12-13T09:51:48.426Z,2.60
2018-12-13T09:52:48.460Z,2.60
2018-12-13T09:53:48.419Z,2.71
2018-12-13T09:54:48.431Z,2.89
2018-12-13T09:55:48.417Z,2.94
2018-12-13T09:56:48.463Z,3.00
2018-12-13T09:57:48.441Z,3.02
2018-12-13T09:58:48.458Z,3.04
2018-12-13T09:59:48.348Z,2.84
2018-12-13T10:00:48.372Z,2.84
2018-12-13T10:01:48.325Z,2.97
2018-12-13T10:02:48.369Z,2.96
2018-12-13T10:03:48.321Z,3.04
2018-12-13T10:04:48.294Z,2.99
2018-12-13T10:05:48.289Z,2.96
2018-12-13T10:06:48.362Z,2.79
2018-12-13T10:07:48.272Z,2.86
2018-12-13T10:08:48.279Z,2.87
2018-12-13T10:09:48.321Z,3.00
2018-12-13T10:10:48.230Z,3.05
2018-12-13T10:11:48.247Z,3.08
2018-12-13T10:12:49.271Z,3.12
2018-12-13T10:13:48.208Z,3.07
2018-12-13T10:14:48.190Z,3.08
2018-12-13T10:15:48.486Z,3.22
2018-12-13T10:16:48.842Z,3.15
2018-12-13T10:17:48.156Z,3.17
2018-12-13T10:18:48.138Z,3.07
2018-12-13T10:19:48.136Z,3.26
2018-12-13T10:20:48.183Z,3.17
2018-12-13T10:21:48.105Z,3.42
2018-12-13T10:22:48.157Z,3.29
2018-12-13T10:23:48.116Z,3.30
2018-12-13T10:24:48.110Z,3.25
2018-12-13T10:25:48.070Z,3.45
2018-12-13T10:26:48.425Z,3.49
2018-12-13T10:27:48.058Z,3.36
2018-12-13T10:28:48.030Z,3.32
2018-12-13T10:29:48.043Z,3.49
2018-12-13T10:30:48.007Z,3.49
2018-12-13T10:31:48.160Z,3.63
2018-12-13T10:32:48.095Z,3.60
2018-12-13T10:33:48.069Z,3.56
2018-12-13T10:34:48.009Z,3.56
2018-12-13T10:35:48.248Z,3.49
2018-12-13T10:36:47.937Z,3.60
2018-12-13T10:37:48.209Z,3.55
2018-12-13T10:38:52.971Z,3.55
2018-12-13T10:39:48.908Z,3.60
2018-12-13T10:40:49.032Z,3.67
2018-12-13T10:41:47.947Z,3.62
2018-12-13T10:42:47.902Z,3.73
2018-12-13T10:43:48.329Z,3.45
2018-12-13T10:44:47.900Z,3.48
2018-12-13T10:45:47.868Z,3.49
2018-12-13T10:46:47.838Z,3.51
2018-12-13T10:47:47.978Z,3.52
2018-12-13T10:48:48.081Z,3.64
2018-12-13T10:49:47.798Z,3.72
2018-12-13T10:50:47.796Z,3.69
2018-12-13T10:51:47.896Z,3.69
2018-12-13T10:52:47.773Z,3.69
2018-12-13T10:53:47.790Z,3.81
2018-12-13T10:54:47.826Z,3.80
2018-12-13T10:55:47.779Z,3.70
2018-12-13T10:56:47.723Z,3.73
2018-12-13T10:57:47.864Z,3.76
2018-12-13T10:58:47.706Z,3.88
2018-12-13T10:59:48.318Z,3.72
2018-12-13T11:00:47.720Z,3.66
2018-12-13T11:01:47.710Z,3.62
2018-12-13T11:02:47.811Z,3.55
2018-12-13T11:03:47.649Z,3.59
2018-12-13T11:04:47.737Z,3.56
2018-12-13T11:05:47.682Z,3.46
2018-12-13T11:06:47.615Z,3.54
2018-12-13T11:07:47.626Z,3.59
2018-12-13T11:08:47.661Z,3.45
2018-12-13T11:09:47.596Z,3.44
2018-12-13T11:10:47.588Z,3.29
2018-12-13T11:11:47.562Z,3.15
2018-12-13T11:12:47.607Z,3.30
2018-12-13T11:13:47.643Z,3.26
2018-12-13T11:14:47.543Z,3.41
2018-12-13T11:15:47.585Z,3.48
2018-12-13T11:16:47.615Z,3.56
2018-12-13T11:17:47.575Z,3.90
2018-12-13T11:18:47.562Z,4.18
2018-12-13T11:19:47.951Z,4.49
2018-12-13T11:20:47.545Z,4.61
2018-12-13T11:21:47.510Z,4.75
2018-12-13T11:22:47.588Z,4.83
2018-12-13T11:23:47.665Z,4.97
2018-12-13T11:24:47.481Z,5.04
2018-12-13T11:25:47.410Z,4.89
2018-12-13T11:26:47.409Z,4.77
2018-12-13T11:27:47.437Z,4.77
2018-12-13T11:28:47.413Z,4.45
2018-12-13T11:29:47.928Z,4.24
2018-12-13T11:30:47.353Z,4.06
2018-12-13T11:31:47.351Z,3.80
2018-12-13T11:32:47.442Z,3.55
2018-12-13T11:33:47.348Z,3.62
2018-12-13T11:34:47.373Z,3.51
2018-12-13T11:35:48.367Z,3.63
2018-12-13T11:36:47.295Z,3.56
2018-12-13T11:37:47.357Z,3.54
2018-12-13T11:38:47.276Z,3.60
2018-12-13T11:39:47.285Z,3.42
2018-12-13T11:40:47.278Z,3.44
2018-12-13T11:41:47.277Z,3.52
2018-12-13T11:42:47.268Z,3.60
2018-12-13T11:43:47.257Z,3.67
2018-12-13T11:44:47.287Z,3.72
2018-12-13T11:45:47.234Z,3.76
2018-12-13T11:46:47.204Z,3.76
2018-12-13T11:47:47.224Z,3.73
2018-12-13T11:48:47.205Z,3.59
2018-12-13T11:49:47.333Z,3.63
2018-12-13T11:50:47.142Z,3.52
2018-12-13T11:51:47.153Z,3.59
2018-12-13T11:52:47.271Z,3.60
2018-12-13T11:53:47.144Z,3.49
2018-12-13T11:54:47.144Z,3.52
2018-12-13T11:55:47.088Z,3.73
2018-12-13T11:56:47.273Z,3.82
2018-12-13T11:57:47.073Z,3.91
2018-12-13T11:58:47.075Z,3.85
2018-12-13T11:59:47.172Z,3.87
2018-12-13T12:00:47.087Z,3.94
2018-12-13T12:01:47.051Z,4.00
2018-12-13T12:02:47.014Z,4.00
2018-12-13T12:03:47.005Z,4.05
2018-12-13T12:04:47.177Z,4.10
2018-12-13T12:05:47.072Z,4.18
2018-12-13T12:06:47.001Z,4.27
2018-12-13T12:07:47.060Z,4.30
2018-12-13T12:08:46.958Z,4.35
2018-12-13T12:09:46.973Z,4.48
2018-12-13T12:10:46.945Z,4.39
2018-12-13T12:11:47.021Z,4.27
2018-12-13T12:12:46.919Z,4.23
2018-12-13T12:13:46.914Z,4.18
2018-12-13T12:14:46.888Z,4.23
2018-12-13T12:15:46.883Z,4.23
2018-12-13T12:16:53.956Z,4.20
2018-12-13T12:17:47.339Z,4.21
2018-12-13T12:18:46.879Z,4.10
2018-12-13T12:19:46.840Z,4.02
2018-12-13T12:20:46.862Z,3.84
2018-12-13T12:21:46.806Z,3.91
2018-12-13T12:22:46.801Z,3.87
2018-12-13T12:23:46.859Z,4.06
2018-12-13T12:24:46.783Z,4.12
2018-12-13T12:25:46.807Z,4.13
2018-12-13T12:26:46.754Z,4.23
2018-12-13T12:27:46.741Z,4.26
2018-12-13T12:28:46.748Z,4.24
2018-12-13T12:29:46.758Z,4.23
2018-12-13T12:30:46.719Z,4.39
2018-12-13T12:31:46.741Z,4.45
2018-12-13T12:32:46.723Z,4.28
2018-12-13T12:33:46.674Z,4.26
2018-12-13T12:34:46.669Z,4.24
2018-12-13T12:35:46.708Z,4.24
2018-12-13T12:36:46.675Z,4.21
2018-12-13T12:37:46.632Z,4.18
2018-12-13T12:38:46.719Z,4.24
2018-12-13T12:39:46.650Z,4.26
2018-12-13T12:40:46.606Z,4.24
2018-12-13T12:41:46.631Z,4.16
2018-12-13T12:42:46.579Z,4.00
2018-12-13T12:43:46.582Z,3.96
2018-12-13T12:44:46.558Z,3.99
2018-12-13T12:45:46.547Z,4.00
2018-12-13T12:46:46.540Z,4.10
2018-12-13T12:47:46.576Z,4.17
2018-12-13T12:48:46.529Z,4.13
2018-12-13T12:49:46.505Z,4.02
2018-12-13T12:50:46.563Z,4.09
2018-12-13T12:51:46.479Z,4.16
2018-12-13T12:52:46.472Z,4.21
2018-12-13T12:53:46.516Z,4.26
2018-12-13T12:54:46.478Z,4.21
2018-12-13T12:55:46.442Z,4.21
2018-12-13T12:56:46.473Z,4.26
2018-12-13T12:57:46.461Z,4.23
2018-12-13T12:58:46.432Z,4.17
2018-12-13T12:59:46.715Z,4.20
2018-12-13T13:00:46.445Z,4.21
2018-12-13T13:01:46.406Z,4.17
2018-12-13T13:02:47.639Z,4.20
2018-12-13T13:03:46.376Z,4.30
2018-12-13T13:04:46.357Z,4.34
2018-12-13T13:05:46.389Z,4.53
2018-12-13T13:06:46.320Z,4.53
2018-12-13T13:07:46.452Z,4.53
2018-12-13T13:08:46.353Z,4.39
2018-12-13T13:09:48.472Z,4.34
2018-12-13T13:10:46.286Z,4.35
2018-12-13T13:11:46.370Z,4.46
2018-12-13T13:12:46.278Z,4.59
2018-12-13T13:13:46.253Z,4.61
2018-12-13T13:14:46.411Z,4.57
2018-12-13T13:15:46.251Z,4.51
2018-12-13T13:16:46.227Z,4.46
2018-12-13T13:17:46.257Z,4.38
2018-12-13T13:18:46.191Z,4.48